Time;durP1;ratioP1;P1;durP2;ratioP2;P2;SDS_P1;SDS_P2;PMS_P1;PMS_P2;Temp;Humidity;BMP_temperature;BMP_pressure;BME280_temperature;BME280_humidity;BME280_pressure;Samples;Min_cycle;Max_cycle;Signal;HPM_P1;HPM_P2
2022/07/24 00:01:53;;;;;;;13.13;11.85;;;21.50;99.90;;;;;;5054392;28;20221;-68
2022/07/24 00:04:20;;;;;;;14.75;13.20;;;21.50;99.90;;;;;;5054374;28;20585;-69
2022/07/24 00:06:47;;;;;;;15.93;12.43;;;21.50;99.90;;;;;;5051269;28;20217;-69
2022/07/24 00:09:13;;;;;;;15.25;13.75;;;21.50;99.90;;;;;;5046268;28;20210;-69
2022/07/24 00:11:40;;;;;;;14.93;13.35;;;21.40;99.90;;;;;;5052641;28;20221;-69
2022/07/24 00:14:08;;;;;;;15.20;13.68;;;21.40;99.90;;;;;;5054067;28;20218;-69
2022/07/24 00:16:35;;;;;;;16.60;14.68;;;21.40;99.90;;;;;;5052693;28;20315;-69
2022/07/24 00:19:02;;;;;;;15.02;13.48;;;21.40;99.90;;;;;;5051711;28;20209;-68
2022/07/24 00:21:28;;;;;;;17.17;13.32;;;21.40;99.90;;;;;;5053206;28;20213;-68
2022/07/24 00:23:55;;;;;;;14.60;13.20;;;21.40;99.90;;;;;;5053787;28;20206;-69
2022/07/24 00:26:22;;;;;;;15.50;13.88;;;21.40;99.90;;;;;;5051880;28;20237;-68
2022/07/24 00:28:49;;;;;;;14.90;13.48;;;21.40;99.90;;;;;;5054347;28;20228;-69
2022/07/24 00:31:18;;;;;;;15.10;13.65;;;21.30;99.90;;;;;;5053634;28;20673;-68
2022/07/24 00:33:46;;;;;;;15.43;13.82;;;21.30;99.90;;;;;;5040387;28;20225;-68
2022/07/24 00:36:13;;;;;;;15.75;13.93;;;21.20;99.90;;;;;;5052231;28;20720;-68
2022/07/24 00:38:39;;;;;;;15.15;13.57;;;21.30;99.90;;;;;;5054206;28;20543;-69
2022/07/24 00:41:06;;;;;;;15.90;13.68;;;21.20;99.90;;;;;;5039501;28;20213;-68
2022/07/24 00:43:34;;;;;;;16.63;14.10;;;21.20;99.90;;;;;;5053014;28;20202;-68
2022/07/24 00:46:01;;;;;;;17.42;14.07;;;21.20;99.90;;;;;;5049109;28;20206;-68
2022/07/24 00:48:29;;;;;;;14.07;12.68;;;21.20;99.90;;;;;;5044804;28;20730;-68
2022/07/24 00:50:56;;;;;;;15.90;14.30;;;21.20;99.90;;;;;;5048702;28;20209;-68
2022/07/24 00:53:23;;;;;;;16.70;14.70;;;21.20;99.90;;;;;;5050285;28;20245;-68
2022/07/24 00:55:50;;;;;;;15.85;14.10;;;21.20;99.90;;;;;;5053596;28;20229;-69
2022/07/24 00:58:16;;;;;;;15.10;13.10;;;21.20;99.90;;;;;;5048317;28;20212;-69
2022/07/24 01:00:43;;;;;;;15.75;13.77;;;21.10;99.90;;;;;;5045874;28;20673;-68
2022/07/24 01:03:10;;;;;;;14.98;13.48;;;21.10;99.90;;;;;;5049002;28;20212;-68
2022/07/24 01:05:38;;;;;;;15.35;13.75;;;21.10;99.90;;;;;;5041453;28;20214;-67
2022/07/24 01:08:05;;;;;;;17.30;13.77;;;21.10;99.90;;;;;;5047547;28;20202;-67
2022/07/24 01:10:32;;;;;;;15.13;13.32;;;21.10;99.90;;;;;;5053456;28;20213;-68
2022/07/24 01:12:59;;;;;;;14.98;13.43;;;21.00;99.90;;;;;;5054592;28;20236;-67
2022/07/24 01:15:26;;;;;;;15.38;13.63;;;21.00;99.90;;;;;;5051762;28;20210;-67
2022/07/24 01:17:52;;;;;;;15.15;13.65;;;21.00;99.90;;;;;;5053684;28;20209;-68
2022/07/24 01:20:19;;;;;;;15.52;14.00;;;21.00;99.90;;;;;;5051655;28;20207;-68
2022/07/24 01:22:47;;;;;;;15.18;13.10;;;20.90;99.90;;;;;;5046147;28;20251;-67
2022/07/24 01:25:14;;;;;;;14.93;13.32;;;20.90;99.90;;;;;;5055219;28;20578;-68
2022/07/24 01:27:41;;;;;;;14.85;11.57;;;20.90;99.90;;;;;;5040722;28;20210;-68
2022/07/24 01:30:09;;;;;;;11.93;10.70;;;20.90;99.90;;;;;;5055321;28;20209;-68
2022/07/24 01:32:36;;;;;;;9.63;7.40;;;20.80;99.90;;;;;;5036017;28;20210;-68
2022/07/24 01:35:03;;;;;;;8.95;6.65;;;20.70;99.90;;;;;;5036212;28;20241;-67
2022/07/24 01:37:30;;;;;;;7.68;5.78;;;20.60;99.90;;;;;;5037182;28;20215;-68
2022/07/24 01:39:58;;;;;;;7.05;4.82;;;20.60;99.90;;;;;;5055045;28;20666;-68
2022/07/24 01:42:25;;;;;;;5.18;4.70;;;20.50;99.90;;;;;;5052914;28;20214;-68
2022/07/24 01:44:52;;;;;;;4.50;4.10;;;20.40;99.90;;;;;;5054548;28;20658;-67
2022/07/24 01:47:19;;;;;;;4.45;3.60;;;20.40;99.90;;;;;;5049111;28;20234;-68
2022/07/24 01:49:45;;;;;;;5.55;3.50;;;20.30;99.90;;;;;;5046924;28;20205;-68
2022/07/24 01:52:12;;;;;;;3.53;3.22;;;20.30;99.90;;;;;;5046429;28;20213;-68
2022/07/24 01:54:39;;;;;;;3.67;3.38;;;20.20;99.90;;;;;;5054486;28;20229;-68
2022/07/24 01:57:07;;;;;;;2.92;2.72;;;20.20;99.90;;;;;;5054992;28;20216;-68
2022/07/24 01:59:34;;;;;;;2.80;2.60;;;20.10;99.90;;;;;;5054656;28;20218;-68
2022/07/24 02:02:01;;;;;;;4.43;2.50;;;20.00;99.90;;;;;;5053695;28;20208;-68
2022/07/24 02:04:27;;;;;;;3.30;2.45;;;20.00;99.90;;;;;;5053311;28;20206;-68
2022/07/24 02:06:54;;;;;;;6.38;2.88;;;19.90;99.90;;;;;;5051852;28;20213;-67
2022/07/24 02:09:21;;;;;;;2.15;2.00;;;19.90;99.90;;;;;;5055332;28;20206;-68
2022/07/24 02:11:48;;;;;;;4.47;2.75;;;19.80;99.90;;;;;;5053819;28;20216;-68
2022/07/24 02:14:16;;;;;;;4.68;2.25;;;19.80;99.90;;;;;;5053242;28;20225;-68
2022/07/24 02:16:42;;;;;;;4.95;2.20;;;19.80;99.90;;;;;;5053295;28;20214;-68
2022/07/24 02:19:09;;;;;;;2.67;2.00;;;19.70;99.90;;;;;;5051088;28;20209;-68
2022/07/24 02:21:36;;;;;;;3.45;2.17;;;19.70;99.90;;;;;;5054228;28;20214;-67
2022/07/24 02:24:03;;;;;;;3.10;2.25;;;19.70;99.90;;;;;;5052239;28;20208;-68
2022/07/24 02:26:30;;;;;;;6.80;2.10;;;19.70;99.90;;;;;;5055034;28;20233;-68
2022/07/24 02:28:56;;;;;;;2.53;2.22;;;19.70;99.90;;;;;;5054654;28;20213;-68
2022/07/24 02:31:24;;;;;;;3.95;2.05;;;19.60;99.90;;;;;;5053653;28;20222;-68
2022/07/24 02:33:51;;;;;;;2.78;2.08;;;19.60;99.90;;;;;;5052951;28;20232;-68
2022/07/24 02:36:18;;;;;;;3.88;1.88;;;19.60;99.90;;;;;;5054544;28;20202;-67
2022/07/24 02:38:45;;;;;;;3.00;2.00;;;19.60;99.90;;;;;;5053914;28;20275;-67
2022/07/24 02:41:12;;;;;;;1.52;1.42;;;19.60;99.90;;;;;;5035117;28;20207;-68
2022/07/24 02:43:38;;;;;;;3.22;2.03;;;19.60;99.90;;;;;;5040963;28;20214;-67
2022/07/24 02:46:05;;;;;;;3.63;1.80;;;19.60;99.90;;;;;;5053634;28;20221;-68
2022/07/24 02:48:33;;;;;;;5.85;2.20;;;19.60;99.90;;;;;;5052894;28;20804;-68
2022/07/24 02:51:00;;;;;;;4.80;1.88;;;19.60;99.90;;;;;;5054397;28;20221;-68
2022/07/24 02:53:27;;;;;;;2.75;1.60;;;19.60;99.90;;;;;;5053619;28;20625;-68
2022/07/24 02:55:53;;;;;;;3.92;1.80;;;19.50;99.90;;;;;;5054168;28;20206;-68
2022/07/24 02:58:20;;;;;;;4.05;2.13;;;19.60;99.90;;;;;;5051794;28;20207;-68
2022/07/24 03:00:47;;;;;;;3.78;1.60;;;19.60;99.90;;;;;;5045671;28;20206;-68
2022/07/24 03:03:14;;;;;;;2.05;1.90;;;19.60;99.90;;;;;;5056703;28;20205;-67
2022/07/24 03:05:42;;;;;;;2.85;1.80;;;19.70;99.90;;;;;;5049648;28;20212;-67
2022/07/24 03:08:09;;;;;;;6.18;2.45;;;19.60;99.90;;;;;;5037952;28;20659;-67
2022/07/24 03:10:35;;;;;;;5.78;2.25;;;19.70;99.90;;;;;;5043223;28;20202;-68
2022/07/24 03:13:02;;;;;;;3.85;1.90;;;19.70;99.90;;;;;;5057509;28;20213;-68
2022/07/24 03:15:29;;;;;;;3.78;2.00;;;19.70;99.90;;;;;;5054449;28;20613;-68
2022/07/24 03:17:57;;;;;;;2.55;1.80;;;19.70;99.90;;;;;;5056088;28;20765;-68
2022/07/24 03:20:26;;;;;;;6.63;1.92;;;19.70;99.90;;;;;;5056433;28;20635;-69
2022/07/24 03:22:54;;;;;;;1.83;1.60;;;19.70;99.90;;;;;;5046048;28;20217;-68
2022/07/24 03:25:21;;;;;;;3.65;1.88;;;19.70;99.90;;;;;;5052401;28;20558;-68
2022/07/24 03:27:48;;;;;;;4.53;1.77;;;19.70;99.90;;;;;;5043505;28;20202;-67
2022/07/24 03:30:16;;;;;;;3.30;1.90;;;19.60;99.90;;;;;;5057793;28;20206;-68
2022/07/24 03:32:43;;;;;;;2.00;1.80;;;19.60;99.90;;;;;;5045761;28;20217;-67
2022/07/24 03:35:10;;;;;;;3.53;1.70;;;19.60;99.90;;;;;;5050322;28;20574;-67
2022/07/24 03:37:37;;;;;;;5.45;1.73;;;19.60;99.90;;;;;;5057463;28;20669;-68
2022/07/24 03:40:07;;;;;;;3.38;1.55;;;19.60;99.90;;;;;;5057361;28;20213;-67
2022/07/24 03:42:34;;;;;;;3.75;1.98;;;19.60;99.90;;;;;;5041794;28;20213;-68
2022/07/24 03:45:01;;;;;;;2.92;2.05;;;19.60;99.90;;;;;;5045782;28;20199;-67
2022/07/24 03:47:27;;;;;;;2.78;1.80;;;19.60;99.90;;;;;;5053565;28;20238;-68
2022/07/24 03:49:55;;;;;;;3.50;1.92;;;19.60;99.90;;;;;;5057288;28;20297;-69
2022/07/24 03:52:22;;;;;;;3.90;1.75;;;19.60;99.90;;;;;;5056193;28;20432;-67
2022/07/24 03:54:49;;;;;;;3.78;1.80;;;19.60;99.90;;;;;;5052262;28;20237;-67
2022/07/24 03:57:17;;;;;;;5.22;1.88;;;19.60;99.90;;;;;;5042567;28;20252;-68
2022/07/24 03:59:44;;;;;;;2.53;1.90;;;19.60;99.90;;;;;;5052968;28;20632;-67
2022/07/24 04:02:10;;;;;;;3.00;2.05;;;19.60;99.90;;;;;;5054613;28;20212;-67
2022/07/24 04:04:37;;;;;;;5.10;2.30;;;19.70;99.90;;;;;;5056459;28;20678;-67
2022/07/24 04:07:04;;;;;;;2.90;2.03;;;19.70;99.90;;;;;;5056681;28;20663;-67
2022/07/24 04:09:31;;;;;;;7.72;2.13;;;19.70;99.90;;;;;;5055959;28;20213;-67
2022/07/24 04:11:57;;;;;;;3.00;2.08;;;19.70;99.90;;;;;;5056147;28;20210;-68
2022/07/24 04:14:25;;;;;;;2.38;2.00;;;19.70;99.90;;;;;;5047744;28;20233;-68
2022/07/24 04:16:52;;;;;;;5.88;2.00;;;19.70;99.90;;;;;;5046884;28;20213;-68
2022/07/24 04:19:19;;;;;;;3.35;1.95;;;19.70;99.90;;;;;;5057131;28;20229;-68
2022/07/24 04:21:46;;;;;;;5.40;2.25;;;19.70;99.90;;;;;;5043838;28;20214;-68
2022/07/24 04:24:12;;;;;;;2.40;1.90;;;19.70;99.90;;;;;;5039632;28;20206;-67
2022/07/24 04:26:39;;;;;;;4.00;2.17;;;19.80;99.90;;;;;;5054601;28;20225;-68
2022/07/24 04:29:06;;;;;;;6.93;2.05;;;19.80;99.90;;;;;;5054812;28;20210;-68
2022/07/24 04:31:34;;;;;;;6.40;2.50;;;19.80;99.90;;;;;;5036663;28;20218;-68
2022/07/24 04:34:01;;;;;;;3.70;2.28;;;19.90;99.90;;;;;;5049847;28;20233;-67
2022/07/24 04:36:27;;;;;;;2.97;2.40;;;19.90;99.90;;;;;;5050824;28;20202;-68
2022/07/24 04:38:54;;;;;;;3.22;1.90;;;19.90;99.90;;;;;;5055444;28;20225;-67
2022/07/24 04:41:21;;;;;;;5.57;2.40;;;19.90;99.90;;;;;;5056042;28;20206;-68
2022/07/24 04:43:48;;;;;;;3.90;2.10;;;20.00;99.90;;;;;;5054605;28;20202;-68
2022/07/24 04:46:15;;;;;;;3.47;1.83;;;20.00;99.90;;;;;;5054659;28;20540;-68
2022/07/24 04:48:43;;;;;;;6.95;2.40;;;19.90;99.90;;;;;;5054881;28;20246;-67
2022/07/24 04:51:09;;;;;;;4.22;2.00;;;19.90;99.90;;;;;;5053771;28;20202;-68
2022/07/24 04:53:36;;;;;;;3.53;2.00;;;19.90;99.90;;;;;;5055639;28;20210;-68
2022/07/24 04:56:03;;;;;;;6.90;2.10;;;19.90;99.90;;;;;;5055293;28;20240;-67
2022/07/24 04:58:31;;;;;;;5.35;1.98;;;19.90;99.90;;;;;;5048270;28;20601;-68
2022/07/24 05:00:58;;;;;;;3.47;2.17;;;19.90;99.90;;;;;;5044903;28;20202;-68
2022/07/24 05:03:24;;;;;;;5.50;2.40;;;20.00;99.90;;;;;;5055475;28;20217;-68
2022/07/24 05:05:52;;;;;;;6.63;2.63;;;20.00;99.90;;;;;;5055343;28;20585;-67
2022/07/24 05:08:19;;;;;;;3.42;2.08;;;20.00;99.90;;;;;;5051162;28;20689;-67
2022/07/24 05:10:46;;;;;;;2.45;1.77;;;20.00;99.90;;;;;;5041984;28;20205;-68
2022/07/24 05:13:13;;;;;;;3.38;2.30;;;20.00;99.90;;;;;;5043245;28;20682;-68
2022/07/24 05:15:40;;;;;;;3.95;1.80;;;20.00;99.90;;;;;;5051796;28;20237;-68
2022/07/24 05:18:06;;;;;;;4.93;2.17;;;19.90;99.90;;;;;;5052333;28;20202;-68
2022/07/24 05:20:33;;;;;;;4.05;2.78;;;19.90;99.90;;;;;;5054793;28;20226;-68
2022/07/24 05:23:01;;;;;;;3.00;2.33;;;20.00;99.90;;;;;;5049833;28;20666;-67
2022/07/24 05:25:28;;;;;;;4.10;2.03;;;20.00;99.90;;;;;;5054861;28;20226;-69
2022/07/24 05:27:55;;;;;;;5.80;2.50;;;20.10;99.90;;;;;;5055402;28;20213;-68
2022/07/24 05:30:22;;;;;;;3.88;2.30;;;20.00;99.90;;;;;;5053120;28;20210;-68
2022/07/24 05:32:48;;;;;;;5.05;2.30;;;20.00;99.90;;;;;;5055250;28;20250;-68
2022/07/24 05:35:15;;;;;;;2.83;2.15;;;20.00;99.90;;;;;;5052581;28;20218;-68
2022/07/24 05:37:42;;;;;;;5.68;1.95;;;20.00;99.90;;;;;;5037415;28;20210;-67
2022/07/24 05:40:11;;;;;;;3.67;1.90;;;20.00;99.90;;;;;;5034163;28;20563;-67
2022/07/24 05:42:38;;;;;;;6.18;2.13;;;20.00;99.90;;;;;;5048399;28;20209;-69
2022/07/24 05:45:05;;;;;;;2.67;2.00;;;20.10;99.90;;;;;;5055142;28;20213;-68
2022/07/24 05:47:36;;;;;;;2.63;1.80;;;20.10;99.90;;;;;;5053120;28;20260;-68
2022/07/24 05:50:06;;;;;;;5.00;1.55;;;20.10;99.90;;;;;;5048416;28;20194;-70
2022/07/24 05:52:32;;;;;;;2.80;1.90;;;20.20;99.90;;;;;;5054178;28;20206;-67
2022/07/24 05:54:59;;;;;;;3.50;1.60;;;20.20;99.90;;;;;;5044323;28;20218;-68
2022/07/24 05:57:27;;;;;;;2.90;1.65;;;20.20;99.90;;;;;;5042926;28;20206;-71
2022/07/24 05:59:54;;;;;;;3.33;1.40;;;20.20;99.90;;;;;;5051650;28;20216;-71
2022/07/24 06:02:21;;;;;;;2.60;1.30;;;20.10;99.90;;;;;;5055447;28;20577;-71
2022/07/24 06:04:47;;;;;;;1.80;1.33;;;20.10;99.90;;;;;;5054217;28;20562;-72
2022/07/24 06:07:14;;;;;;;4.35;1.42;;;20.10;99.90;;;;;;5056235;28;20216;-72
2022/07/24 06:09:41;;;;;;;2.83;1.38;;;20.20;99.90;;;;;;5042658;28;20625;-72
2022/07/24 06:12:09;;;;;;;1.95;1.33;;;20.30;99.90;;;;;;5043785;28;20209;-73
2022/07/24 06:14:37;;;;;;;1.95;1.35;;;20.20;99.90;;;;;;5039273;28;20705;-71
2022/07/24 06:17:04;;;;;;;1.50;1.40;;;20.30;99.90;;;;;;5045857;28;20209;-72
2022/07/24 06:19:30;;;;;;;5.93;1.70;;;20.40;99.90;;;;;;5052473;28;20198;-73
2022/07/24 06:21:57;;;;;;;1.40;1.30;;;20.30;99.90;;;;;;5055572;28;20541;-72
2022/07/24 06:24:24;;;;;;;2.92;1.23;;;20.30;99.90;;;;;;5046506;28;20213;-73
2022/07/24 06:26:51;;;;;;;2.17;1.48;;;20.30;99.90;;;;;;5052484;28;20232;-72
2022/07/24 06:29:18;;;;;;;1.20;1.10;;;20.40;99.90;;;;;;5054058;28;20216;-72
2022/07/24 06:31:46;;;;;;;6.20;1.23;;;20.40;99.90;;;;;;5055616;28;20670;-73
2022/07/24 06:34:13;;;;;;;4.38;1.33;;;20.50;99.90;;;;;;5055597;28;20245;-67
2022/07/24 06:36:39;;;;;;;4.25;1.00;;;20.50;99.90;;;;;;5056598;28;20225;-68
2022/07/24 06:39:06;;;;;;;4.40;1.20;;;20.60;99.90;;;;;;5055551;28;20208;-71
2022/07/24 06:41:33;;;;;;;1.05;0.90;;;20.70;99.90;;;;;;5059076;28;20212;-69
2022/07/24 06:44:00;;;;;;;1.70;1.40;;;20.70;99.90;;;;;;5058013;28;20198;-70
2022/07/24 06:46:27;;;;;;;5.18;1.45;;;20.70;99.90;;;;;;5056455;28;20205;-69
2022/07/24 06:48:55;;;;;;;1.23;1.13;;;20.80;99.90;;;;;;5042999;28;20333;-69
2022/07/24 06:51:22;;;;;;;2.63;1.23;;;20.80;99.90;;;;;;5042782;28;20260;-70
2022/07/24 06:53:48;;;;;;;5.68;1.40;;;20.80;99.90;;;;;;5049227;28;20206;-69
2022/07/24 06:56:15;;;;;;;1.50;1.10;;;20.80;99.90;;;;;;5057691;28;20222;-69
2022/07/24 06:58:42;;;;;;;4.07;1.30;;;20.90;99.90;;;;;;5056844;28;20209;-68
2022/07/24 07:01:09;;;;;;;2.13;1.27;;;20.90;99.90;;;;;;5048897;28;20647;-70
2022/07/24 07:03:36;;;;;;;2.38;1.13;;;21.00;99.90;;;;;;5048426;28;20206;-69
2022/07/24 07:06:04;;;;;;;1.90;1.00;;;21.00;99.90;;;;;;5056151;28;20284;-69
2022/07/24 07:08:31;;;;;;;4.53;1.00;;;21.10;99.90;;;;;;5043160;28;20218;-68
2022/07/24 07:10:58;;;;;;;1.67;1.00;;;21.10;99.90;;;;;;5051368;28;20201;-69
2022/07/24 07:13:24;;;;;;;2.63;1.25;;;21.10;99.90;;;;;;5051776;28;20228;-68
2022/07/24 07:15:51;;;;;;;2.60;1.30;;;21.10;99.90;;;;;;5053931;28;20581;-69
2022/07/24 07:18:18;;;;;;;1.27;0.90;;;21.00;99.90;;;;;;5053707;28;20198;-68
2022/07/24 07:20:45;;;;;;;1.60;1.20;;;21.00;99.90;;;;;;5052375;28;20225;-69
2022/07/24 07:23:13;;;;;;;2.80;1.33;;;21.00;99.90;;;;;;5052994;28;20226;-68
2022/07/24 07:25:39;;;;;;;3.20;1.15;;;21.00;99.90;;;;;;5054722;28;20218;-68
2022/07/24 07:28:06;;;;;;;1.38;0.95;;;21.10;99.90;;;;;;5057799;28;20217;-67
2022/07/24 07:30:33;;;;;;;3.75;1.13;;;21.20;99.90;;;;;;5057279;28;20217;-71
2022/07/24 07:32:59;;;;;;;2.47;1.08;;;21.30;99.90;;;;;;5057480;28;20217;-71
2022/07/24 07:35:26;;;;;;;2.85;1.00;;;21.30;99.90;;;;;;5057930;28;20225;-68
2022/07/24 07:37:53;;;;;;;2.00;1.38;;;21.50;99.90;;;;;;5048669;28;20207;-71
2022/07/24 07:40:21;;;;;;;5.22;1.20;;;21.50;99.90;;;;;;5057303;28;20256;-70
2022/07/24 07:42:48;;;;;;;1.20;1.00;;;21.60;99.90;;;;;;5056907;28;20210;-70
2022/07/24 07:45:15;;;;;;;2.05;1.13;;;21.60;99.90;;;;;;5048061;28;20664;-69
2022/07/24 07:47:41;;;;;;;4.70;1.23;;;21.70;99.90;;;;;;5056141;28;20237;-68
2022/07/24 07:50:10;;;;;;;9.35;1.20;;;21.70;99.90;;;;;;5042639;28;20219;-70
2022/07/24 07:52:36;;;;;;;1.92;1.10;;;21.80;99.90;;;;;;5049432;28;20217;-71
2022/07/24 07:55:04;;;;;;;1.30;1.00;;;21.90;99.90;;;;;;5052106;28;20209;-70
2022/07/24 07:57:33;;;;;;;1.13;0.98;;;22.00;99.90;;;;;;5055444;28;20217;-70
2022/07/24 08:00:00;;;;;;;1.08;0.90;;;22.20;99.90;;;;;;5055415;28;20208;-71
2022/07/24 08:02:29;;;;;;;3.03;1.15;;;22.30;99.90;;;;;;5048281;28;20206;-70
2022/07/24 08:04:56;;;;;;;1.95;1.15;;;22.30;99.90;;;;;;5040225;28;20206;-71
2022/07/24 08:07:22;;;;;;;7.75;1.52;;;22.40;99.90;;;;;;5052090;28;20216;-69
2022/07/24 08:09:49;;;;;;;1.50;1.25;;;22.50;99.90;;;;;;5048110;28;20222;-68
2022/07/24 08:12:16;;;;;;;1.65;1.25;;;22.50;99.90;;;;;;5046569;28;20206;-70
2022/07/24 08:14:44;;;;;;;5.35;1.13;;;22.60;99.90;;;;;;5044132;28;20198;-69
2022/07/24 08:17:11;;;;;;;2.60;1.58;;;22.60;99.90;;;;;;5042212;28;20558;-68
2022/07/24 08:19:38;;;;;;;2.47;1.30;;;22.70;99.90;;;;;;5039998;28;20207;-69
2022/07/24 08:22:05;;;;;;;1.33;1.23;;;22.90;99.90;;;;;;5038514;28;20221;-68
2022/07/24 08:24:32;;;;;;;3.33;1.38;;;23.10;99.90;;;;;;5056306;28;20221;-71
2022/07/24 08:26:59;;;;;;;2.80;1.35;;;23.20;99.90;;;;;;5038760;28;20572;-66
2022/07/24 08:29:26;;;;;;;5.68;1.00;;;23.30;99.90;;;;;;5046414;28;20693;-69
2022/07/24 08:31:54;;;;;;;2.97;1.27;;;23.40;99.90;;;;;;5037374;28;20211;-70
2022/07/24 08:34:21;;;;;;;1.52;1.33;;;23.40;99.90;;;;;;5048531;28;20202;-69
2022/07/24 08:36:48;;;;;;;1.52;1.20;;;23.50;99.90;;;;;;5051452;28;20233;-71
2022/07/24 08:39:15;;;;;;;5.43;1.40;;;23.60;99.90;;;;;;5049451;28;20213;-70
2022/07/24 08:41:42;;;;;;;1.40;1.30;;;23.60;99.90;;;;;;5049196;28;20218;-68
2022/07/24 08:44:09;;;;;;;2.78;1.20;;;23.70;99.90;;;;;;5055141;28;20221;-68
2022/07/24 08:46:38;;;;;;;2.05;1.30;;;23.60;99.90;;;;;;5046314;28;20267;-68
2022/07/24 08:49:08;;;;;;;3.25;1.63;;;23.60;99.90;;;;;;5045446;28;20202;-68
2022/07/24 08:51:38;;;;;;;2.25;2.00;;;23.40;99.90;;;;;;5046925;28;20608;-68
2022/07/24 08:54:05;;;;;;;2.05;1.83;;;23.20;99.90;;;;;;5055512;28;20232;-70
2022/07/24 08:56:33;;;;;;;3.10;1.92;;;23.10;99.90;;;;;;5047480;28;20234;-67
2022/07/24 08:59:00;;;;;;;2.00;1.80;;;22.90;99.90;;;;;;5048642;28;20210;-65
2022/07/24 09:01:28;;;;;;;1.67;1.50;;;22.80;99.90;;;;;;5050546;28;20202;-68
2022/07/24 09:03:55;;;;;;;1.83;1.60;;;22.90;99.90;;;;;;5042659;28;20198;-66
2022/07/24 09:06:23;;;;;;;1.42;1.33;;;22.80;99.90;;;;;;5054094;28;20209;-67
2022/07/24 09:08:59;;;;;;;2.97;1.27;;;22.90;99.90;;;;;;5035730;28;20213;-68
2022/07/24 09:11:28;;;;;;;1.50;1.20;;;23.00;99.90;;;;;;5045293;28;20204;-69
2022/07/24 09:16:45;;;;;;;1.80;1.20;;;23.20;99.90;;;;;;5054539;28;20279;-68
2022/07/24 09:19:13;;;;;;;2.40;1.50;;;23.30;99.90;;;;;;5049440;28;20221;-68
2022/07/24 09:21:42;;;;;;;3.05;2.08;;;23.40;99.90;;;;;;5046153;28;20214;-69
2022/07/24 09:24:13;;;;;;;1.27;1.15;;;23.50;99.90;;;;;;5054294;28;20212;-69
2022/07/24 09:26:48;;;;;;;4.30;1.20;;;23.60;99.90;;;;;;5050285;28;20222;-67
2022/07/24 09:29:15;;;;;;;1.50;1.17;;;23.60;99.90;;;;;;5039108;28;20734;-68
2022/07/24 09:31:53;;;;;;;1.70;1.10;;;23.60;99.90;;;;;;5055310;28;20209;-68
2022/07/24 09:34:20;;;;;;;1.08;0.93;;;23.60;99.90;;;;;;5055212;28;20225;-68
2022/07/24 09:37:02;;;;;;;1.35;1.25;;;23.50;99.90;;;;;;5053534;28;20603;-68
2022/07/24 09:39:31;;;;;;;0.93;0.90;;;23.50;99.90;;;;;;5053979;28;20206;-68
2022/07/24 09:41:59;;;;;;;1.10;1.00;;;23.50;99.90;;;;;;5048312;28;20210;-68
2022/07/24 09:44:26;;;;;;;0.80;0.80;;;23.50;99.90;;;;;;5054076;28;20202;-69
2022/07/24 09:46:57;;;;;;;1.10;1.00;;;23.50;99.90;;;;;;5051001;28;20199;-68
2022/07/24 09:49:24;;;;;;;1.77;0.88;;;23.50;99.90;;;;;;5049733;28;20256;-68
2022/07/24 09:54:47;;;;;;;1.67;1.00;;;23.40;99.90;;;;;;5074069;28;20907;-68
2022/07/24 09:57:20;;;;;;;1.30;1.13;;;23.20;99.90;;;;;;5071154;28;20205;-68
2022/07/24 09:59:48;;;;;;;5.68;1.20;;;23.20;99.90;;;;;;5071228;28;20197;-68
2022/07/24 10:02:18;;;;;;;2.28;1.23;;;23.20;99.90;;;;;;5072148;28;20563;-68
2022/07/24 10:04:47;;;;;;;1.40;1.30;;;23.30;99.90;;;;;;5071810;28;20217;-68
2022/07/24 10:07:16;;;;;;;1.10;1.00;;;23.40;99.90;;;;;;5071545;28;20204;-68
2022/07/24 10:09:46;;;;;;;1.20;1.10;;;23.50;99.90;;;;;;5072178;28;20212;-68
2022/07/24 10:12:15;;;;;;;2.88;1.20;;;23.50;99.90;;;;;;5071498;28;20205;-69
2022/07/24 10:14:43;;;;;;;1.80;0.90;;;23.30;99.90;;;;;;5071714;28;20304;-67
2022/07/24 10:17:12;;;;;;;1.50;1.13;;;23.10;99.90;;;;;;5070711;28;20213;-67
2022/07/24 10:19:41;;;;;;;0.90;0.88;;;23.00;99.90;;;;;;5069814;28;20205;-67
2022/07/24 10:22:11;;;;;;;2.35;1.10;;;22.90;99.90;;;;;;5072347;28;20209;-69
2022/07/24 10:25:00;;;;;;;1.42;0.98;;;22.90;99.90;;;;;;5071872;28;20233;-69
2022/07/24 10:27:31;;;;;;;0.95;0.90;;;22.90;99.90;;;;;;5052510;28;20627;-69
2022/07/24 10:30:00;;;;;;;1.42;0.98;;;23.00;99.90;;;;;;5042446;28;20286;-68
2022/07/24 10:32:28;;;;;;;1.42;1.00;;;23.10;99.90;;;;;;5046595;28;20236;-68
2022/07/24 10:35:14;;;;;;;1.10;1.00;;;23.10;99.90;;;;;;5051712;28;20206;-68
2022/07/24 10:37:54;;;;;;;0.98;0.98;;;23.20;99.90;;;;;;5052368;28;20198;-68
2022/07/24 10:40:28;;;;;;;2.30;0.90;;;23.30;99.90;;;;;;5051361;28;20212;-68
2022/07/24 10:43:15;;;;;;;1.10;1.00;;;23.30;99.90;;;;;;5051745;28;20205;-68
2022/07/24 10:45:44;;;;;;;1.95;1.10;;;23.40;99.90;;;;;;5052144;28;20268;-68
2022/07/24 10:48:36;;;;;;;2.47;1.42;;;23.60;99.90;;;;;;5050121;28;20221;-68
2022/07/24 10:51:09;;;;;;;1.38;1.27;;;23.70;99.90;;;;;;5041309;28;20245;-68
2022/07/24 10:53:48;;;;;;;1.13;1.13;;;23.90;99.90;;;;;;5051594;28;20249;-68
2022/07/24 10:56:24;;;;;;;1.73;1.25;;;24.10;99.90;;;;;;5051136;28;20206;-68
2022/07/24 10:59:01;;;;;;;1.23;1.13;;;24.30;99.90;;;;;;5051264;28;20202;-68
2022/07/24 11:01:34;;;;;;;1.50;1.13;;;24.50;99.90;;;;;;5051573;28;20206;-69
2022/07/24 11:04:01;;;;;;;6.22;1.65;;;24.60;99.90;;;;;;5037651;28;20203;-67
2022/07/24 11:06:43;;;;;;;0.88;0.88;;;24.60;99.90;;;;;;5036568;28;20211;-69
2022/07/24 11:09:10;;;;;;;1.20;1.10;;;24.80;99.90;;;;;;5038114;28;20210;-67
2022/07/24 11:11:43;;;;;;;1.35;1.20;;;25.10;99.90;;;;;;5038436;28;20581;-67
2022/07/24 11:14:11;;;;;;;1.10;1.00;;;25.50;99.90;;;;;;5037676;28;20245;-67
2022/07/24 11:16:38;;;;;;;8.57;1.40;;;25.80;99.60;;;;;;5037689;28;20218;-68
2022/07/24 11:19:31;;;;;;;1.00;1.00;;;26.00;98.80;;;;;;5027760;28;20673;-67
2022/07/24 11:22:09;;;;;;;1.13;1.02;;;26.00;98.10;;;;;;5031545;28;20210;-68
2022/07/24 11:24:36;;;;;;;3.33;1.40;;;26.00;97.70;;;;;;5035599;28;20210;-69
2022/07/24 11:27:14;;;;;;;1.02;0.93;;;26.00;97.50;;;;;;5037927;28;20718;-68
2022/07/24 11:29:40;;;;;;;1.08;0.88;;;26.00;97.60;;;;;;5037245;28;20206;-68
2022/07/24 11:32:10;;;;;;;2.60;1.08;;;25.90;97.80;;;;;;5033129;28;20239;-68
2022/07/24 11:34:38;;;;;;;0.95;0.95;;;25.70;97.90;;;;;;5037784;28;20254;-68
2022/07/24 11:37:06;;;;;;;1.30;1.17;;;25.80;97.90;;;;;;5038667;28;20271;-69
2022/07/24 11:39:35;;;;;;;2.13;1.20;;;26.00;98.00;;;;;;5038585;28;20223;-68
2022/07/24 11:42:04;;;;;;;0.95;0.95;;;26.10;97.20;;;;;;5035487;28;20659;-68
2022/07/24 11:44:34;;;;;;;0.82;0.80;;;26.30;97.00;;;;;;5037959;28;20218;-68
2022/07/24 11:47:07;;;;;;;4.00;1.27;;;26.40;96.50;;;;;;5036681;28;20209;-67
2022/07/24 11:49:40;;;;;;;1.50;1.20;;;26.40;95.70;;;;;;5036376;28;20217;-68
2022/07/24 11:52:08;;;;;;;3.53;1.20;;;26.20;95.40;;;;;;5035483;28;20577;-67
2022/07/24 11:54:35;;;;;;;2.83;1.38;;;25.90;95.70;;;;;;5035668;28;20292;-68
2022/07/24 11:57:02;;;;;;;1.88;1.08;;;25.60;96.00;;;;;;5036373;28;20210;-67
2022/07/24 11:59:31;;;;;;;2.72;1.33;;;25.40;96.80;;;;;;5036981;28;20237;-69
2022/07/24 12:02:05;;;;;;;2.25;1.17;;;25.20;97.30;;;;;;5037402;28;20203;-68
2022/07/24 12:04:31;;;;;;;1.40;1.30;;;25.10;97.80;;;;;;5036822;28;20201;-68
2022/07/24 12:06:59;;;;;;;2.97;1.65;;;24.90;97.90;;;;;;5037254;28;20705;-68
2022/07/24 12:09:25;;;;;;;1.40;1.30;;;24.90;98.50;;;;;;5034614;28;20211;-68
2022/07/24 12:11:52;;;;;;;2.35;1.30;;;24.90;98.70;;;;;;5028776;28;20210;-68
2022/07/24 12:14:20;;;;;;;2.92;1.60;;;25.00;98.70;;;;;;5035964;28;20233;-69
2022/07/24 12:16:53;;;;;;;1.85;1.42;;;25.20;98.40;;;;;;5035316;28;20217;-69
2022/07/24 12:19:23;;;;;;;1.30;1.10;;;25.30;98.20;;;;;;5023195;28;20571;-69
2022/07/24 12:21:52;;;;;;;3.17;1.50;;;25.50;98.40;;;;;;5036515;28;20663;-68
2022/07/24 12:24:20;;;;;;;1.73;1.10;;;25.60;97.70;;;;;;5034478;28;20206;-68
2022/07/24 12:26:52;;;;;;;1.08;0.98;;;25.70;97.30;;;;;;5035260;28;20257;-67
2022/07/24 12:29:19;;;;;;;1.98;1.77;;;25.90;97.10;;;;;;5030987;28;20207;-67
2022/07/24 12:31:46;;;;;;;3.10;1.35;;;25.90;96.80;;;;;;5033506;28;20558;-64
2022/07/24 12:34:13;;;;;;;2.13;1.40;;;25.80;96.70;;;;;;5031423;28;20226;-66
2022/07/24 12:36:41;;;;;;;3.55;1.20;;;25.60;96.60;;;;;;5033623;28;20221;-66
2022/07/24 12:39:09;;;;;;;2.28;1.65;;;25.30;97.10;;;;;;5031881;28;20218;-71
2022/07/24 12:41:44;;;;;;;2.65;1.40;;;25.00;97.40;;;;;;5031093;28;20293;-70
2022/07/24 12:44:12;;;;;;;1.63;1.52;;;24.60;97.90;;;;;;5028559;28;20617;-69
2022/07/24 12:46:41;;;;;;;3.10;1.80;;;24.40;98.40;;;;;;5033022;28;20245;-74
2022/07/24 12:49:09;;;;;;;2.33;2.03;;;24.20;98.60;;;;;;5033913;28;20203;-70
2022/07/24 12:51:48;;;;;;;2.20;1.83;;;24.00;98.80;;;;;;5028909;28;20213;-68
2022/07/24 12:54:20;;;;;;;1.92;1.77;;;23.90;99.40;;;;;;5032109;28;20235;-67
2022/07/24 12:56:48;;;;;;;2.05;1.88;;;23.80;99.50;;;;;;5032384;28;20305;-70